Data for 12/06/2005

Time Sea-Level Adjusted Pressure Absolute Pressure Temperature Relative Humidity Dew Point   
(mb) (inHg) (mb) (inHg) (C) (F) (%) (C) (F)
00:05 1021 30.15 850 25.1 -15 5.1 85 -17 1.4
00:10 1021 30.15 850 25.1 -15 5.1 83 -17.2 1.1
00:15 1021 30.15 850 25.1 -15.1 4.9 81 -17.6 0.3
00:20 1021 30.15 850 25.1 -15.3 4.6 81 -17.8 -0
00:25 1021 30.15 850 25.1 -15.5 4.1 80 -18.2 -0.8
00:30 1021 30.15 850 25.1 -15.9 3.4 80 -18.6 -1.4
00:35 1021 30.15 850 25.1 -16.2 2.9 81 -18.6 -1.6
00:40 1021 30.15 850 25.1 -16.3 2.7 81 -18.9 -1.9
00:45 1021 30.15 850 25.1 -16.4 2.5 80 -19.1 -2.3
00:50 1021 30.15 850 25.1 -16.3 2.6 77 -19.4 -2.9
00:55 1021 30.15 850 25.1 -16.4 2.4 79 -19.3 -2.7
01:00 1021 30.15 850 25.1 -16.4 2.5 78 -19.4 -2.9
01:05 1021 30.15 850 25.1 -16.3 2.7 75 -19.7 -3.4
01:10 1021 30.15 850 25.1 -16.3 2.7 76 -19.6 -3.2
01:15 1021 30.15 850 25.1 -16.5 2.4 76 -19.8 -3.7
01:20 1021 30.15 851 25.13 -16.7 2 76 -20 -4
01:25 1021 30.15 851 25.13 -17.1 1.3 74 -20.6 -5.1
01:30 1021 30.15 851 25.13 -17.2 1 75 -20.6 -5.1
01:35 1021 30.15 851 25.13 -17.3 0.9 76 -20.6 -5
01:40 1022 30.18 851 25.13 -17.1 1.2 75 -20.5 -5
01:45 1022 30.18 851 25.13 -17 1.3 73 -20.8 -5.4
01:50 1022 30.18 851 25.13 -16.9 1.5 73 -20.7 -5.2
01:55 1022 30.18 851 25.13 -17.1 1.2 74 -20.8 -5.4
02:00 1022 30.18 851 25.13 -17.2 1 75 -20.7 -5.2
02:05 1022 30.18 851 25.13 -17.1 1.2 77 -20.3 -4.6
02:10 1022 30.18 851 25.13 -17.2 1.1 78 -20.2 -4.3
02:15 1022 30.18 851 25.13 -17.1 1.1 78 -20.1 -4.2
02:20 1022 30.18 851 25.13 -17 1.5 78 -20 -3.9
02:25 1022 30.18 851 25.13 -16.8 1.8 77 -19.9 -3.7
02:30 1022 30.18 851 25.13 -16.7 2 76 -19.9 -3.9
02:35 1022 30.18 851 25.13 -16.6 2 76 -20 -4
02:40 1022 30.18 851 25.13 -16.7 2 76 -20 -4
02:45 1022 30.18 851 25.13 -16.7 2 75 -20.1 -4.3
02:50 1022 30.18 851 25.13 -17 1.5 77 -20.1 -4.2
02:55 1022 30.18 851 25.13 -17 1.4 76 -20.3 -4.5
03:00 1022 30.18 851 25.13 -17 1.5 77 -20.1 -4.3
03:05 1022 30.18 851 25.13 -16.8 1.8 77 -19.9 -3.7
03:10 1022 30.18 851 25.13 -16.9 1.7 77 -20 -4
03:15 1022 30.18 852 25.16 -17 1.4 76 -20.3 -4.6
03:20 1022 30.18 852 25.16 -16.9 1.7 76 -20.2 -4.3
03:25 1022 30.18 852 25.16 -16.7 1.9 77 -19.9 -3.8
03:30 1022 30.18 852 25.16 -16.7 2 77 -19.8 -3.6
03:35 1022 30.18 852 25.16 -16.8 1.8 77 -19.9 -3.8
03:40 1023 30.21 852 25.16 -17 1.4 78 -20 -4
03:45 1023 30.21 852 25.16 -17.1 1.2 78 -20.1 -4.2
03:50 1023 30.21 852 25.16 -17.3 0.8 78 -20.2 -4.4
03:55 1023 30.21 852 25.16 -17.5 0.5 78 -20.4 -4.8
04:00 1023 30.21 852 25.16 -17.6 0.4 79 -20.4 -4.8
04:05 1023 30.21 852 25.16 -17.6 0.3 78 -20.5 -5
04:10 1023 30.21 852 25.16 -17.6 0.3 79 -20.4 -4.8
04:15 1023 30.21 852 25.16 -17.6 0.4 79 -20.3 -4.6
04:20 1023 30.21 852 25.16 -17.8 -0.1 80 -20.6 -5
04:25 1023 30.21 852 25.16 -17.8 -0.1 80 -20.4 -4.8
04:30 1023 30.21 852 25.16 -17.5 0.5 80 -20.1 -4.3
04:35 1023 30.21 852 25.16 -17.3 0.8 79 -20.2 -4.4
04:40 1023 30.21 852 25.16 -17.6 0.4 80 -20.3 -4.6
04:45 1023 30.21 852 25.16 -17.4 0.6 80 -20.2 -4.3
04:50 1023 30.21 852 25.16 -17.3 0.9 79 -20 -4.1
04:55 1023 30.21 852 25.16 -17.4 0.8 79 -20.2 -4.4
05:00 1023 30.21 852 25.16 -17.7 0.2 79 -20.4 -4.7
05:05 1023 30.21 852 25.16 -18.1 -0.7 80 -20.7 -5.3
05:10 1023 30.21 852 25.16 -18.3 -0.9 82 -20.7 -5.2
05:15 1023 30.21 852 25.16 -17.9 -0.2 80 -20.6 -5
05:20 1023 30.21 852 25.16 -17.7 0.1 80 -20.4 -4.8
05:25 1023 30.21 852 25.16 -17.8 -0.1 80 -20.5 -4.9
05:30 1023 30.21 852 25.16 -18 -0.4 79 -20.8 -5.5
05:35 1023 30.21 852 25.16 -18.3 -1 80 -21.1 -5.9
05:40 1023 30.21 852 25.16 -18.3 -1 81 -20.9 -5.5
05:45 1023 30.21 852 25.16 -18.1 -0.6 80 -20.8 -5.4
05:50 1023 30.21 852 25.16 -18 -0.5 80 -20.8 -5.4
05:55 1023 30.21 852 25.16 -18 -0.3 80 -20.6 -5.1
06:00 1023 30.21 852 25.16 -17.9 -0.2 80 -20.5 -5
06:05 1023 30.21 853 25.19 -17.9 -0.2 79 -20.7 -5.2
06:10 1023 30.21 853 25.19 -18 -0.5 80 -20.7 -5.3
06:15 1023 30.21 853 25.19 -18 -0.3 79 -20.8 -5.4
06:20 1023 30.21 853 25.19 -17.8 -0 79 -20.6 -5.1
06:25 1023 30.21 853 25.19 -17.7 0.1 79 -20.6 -5
06:30 1023 30.21 853 25.19 -17.8 0 79 -20.6 -5.1
06:35 1024 30.24 853 25.19 -17.7 0.2 78 -20.6 -5
06:40 1024 30.24 853 25.19 -17.7 0.2 78 -20.6 -5
06:45 1024 30.24 853 25.19 -17.7 0.1 79 -20.6 -5.1
06:50 1024 30.24 853 25.19 -17.7 0.1 78 -20.7 -5.2
06:55 1024 30.24 853 25.19 -17.8 -0 78 -20.7 -5.3
07:00 1024 30.24 853 25.19 -18.1 -0.5 78 -21.1 -5.9
07:05 1024 30.24 853 25.19 -18.2 -0.8 79 -21 -5.7
07:10 1024 30.24 853 25.19 -18.4 -1 78 -21.4 -6.5
07:15 1024 30.24 853 25.19 -19 -2.1 80 -21.5 -6.7
07:20 1024 30.24 853 25.19 -19 -2.1 81 -21.5 -6.7
07:25 1024 30.24 853 25.19 -18.7 -1.7 81 -21.2 -6.2
07:30 1024 30.24 853 25.19 -18.4 -1.2 81 -20.9 -5.6
07:35 1024 30.24 853 25.19 -18.3 -1 81 -20.9 -5.6
07:40 1024 30.24 853 25.19 -18.5 -1.2 81 -21 -5.7
07:45 1024 30.24 853 25.19 -18.4 -1.1 81 -20.9 -5.5
07:50 1024 30.24 853 25.19 -18.3 -0.9 81 -20.9 -5.5
07:55 1024 30.24 853 25.19 -18.4 -1.1 81 -20.9 -5.6
08:00 1024 30.24 853 25.19 -18.5 -1.3 81 -21 -5.8
08:05 1024 30.24 853 25.19 -18.6 -1.4 82 -20.9 -5.5
08:10 1024 30.24 853 25.19 -18.4 -1.2 81 -20.9 -5.7
08:15 1024 30.24 853 25.19 -18.4 -1.2 81 -20.9 -5.6
08:20 1024 30.24 854 25.22 -18.3 -0.9 82 -20.7 -5.2
08:25 1024 30.24 854 25.22 -17.9 -0.3 82 -20.3 -4.6
08:30 1024 30.24 854 25.22 -17.8 -0 81 -20.2 -4.4
08:35 1024 30.24 854 25.22 -17.7 0.1 81 -20.3 -4.5
08:40 1024 30.24 854 25.22 -17.5 0.5 80 -20.2 -4.4
08:45 1024 30.24 854 25.22 -17.5 0.5 79 -20.3 -4.5
08:50 1024 30.24 854 25.22 -17.6 0.4 79 -20.4 -4.8
08:55 1024 30.24 854 25.22 -17.4 0.6 79 -20.2 -4.3
09:00 1025 30.27 854 25.22 -17.2 1.1 77 -20.3 -4.5
09:05 1025 30.27 854 25.22 -17.5 0.5 78 -20.5 -4.9
09:10 1025 30.27 854 25.22 -17.5 0.4 77 -20.6 -5
09:15 1025 30.27 854 25.22 -17.1 1.3 75 -20.5 -4.9
09:20 1025 30.27 854 25.22 -16.7 2 74 -20.2 -4.4
09:25 1025 30.27 854 25.22 -16 3.2 72 -20 -4
09:30 1025 30.27 854 25.22 -15.7 3.8 71 -19.9 -3.7
09:35 1025 30.27 854 25.22 -15.7 3.8 70 -20 -3.9
09:40 1025 30.27 854 25.22 -15.6 3.8 70 -19.9 -3.9
09:45 1025 30.27 854 25.22 -15.7 3.7 71 -19.9 -3.7
09:50 1025 30.27 854 25.22 -15.5 4.1 69 -20 -4
09:55 1025 30.27 854 25.22 -15.5 4.1 70 -19.8 -3.6
10:00 1025 30.27 854 25.22 -15.9 3.4 71 -20 -3.9
10:05 1025 30.27 854 25.22 -15.6 3.9 69 -20 -4
10:10 1025 30.27 854 25.22 -15.7 3.7 70 -20 -4
10:15 1025 30.27 854 25.22 -16.3 2.6 72 -20.3 -4.6
10:20 1025 30.27 854 25.22 -16.4 2.4 72 -20.4 -4.8
10:25 1025 30.27 854 25.22 -17.1 1.3 73 -20.8 -5.4
10:30 1025 30.27 854 25.22 -17.2 1.1 74 -20.8 -5.4
10:35 1025 30.27 854 25.22 -16.4 2.6 70 -20.6 -5
10:40 1025 30.27 854 25.22 -16.4 2.4 71 -20.5 -4.9
10:45 1025 30.27 854 25.22 -16 3.2 70 -20.3 -4.5
10:50 1025 30.27 854 25.22 -15.6 4 70 -19.9 -3.9
10:55 1025 30.27 854 25.22 -15.7 3.8 70 -19.9 -3.9
11:00 1025 30.27 854 25.22 -14.9 5.2 68 -19.5 -3.1
11:05 1025 30.27 854 25.22 -14.3 6.3 66 -19.4 -2.9
11:10 1025 30.27 854 25.22 -14.6 5.8 67 -19.4 -3
11:15 1025 30.27 854 25.22 -14.6 5.7 66 -19.6 -3.3
11:20 1025 30.27 854 25.22 -14 6.8 63 -19.6 -3.2
11:25 1025 30.27 854 25.22 -13.9 6.9 62 -19.6 -3.3
11:30 1025 30.27 854 25.22 -13.9 7.1 63 -19.4 -3
11:35 1025 30.27 854 25.22 -13.8 7.2 63 -19.4 -2.9
11:40 1025 30.27 854 25.22 -13.9 7 63 -19.5 -3
11:45 1025 30.27 854 25.22 -13.7 7.3 63 -19.4 -2.9
11:50 1025 30.27 854 25.22 -13.4 7.8 61 -19.4 -2.9
11:55 1025 30.27 854 25.22 -13.4 7.9 61 -19.4 -2.9
12:00 1025 30.27 854 25.22 -13.5 7.7 63 -19.2 -2.6
12:05 1025 30.27 854 25.22 -13.5 7.8 61 -19.4 -3
12:10 1025 30.27 854 25.22 -13.2 8.3 61 -19.2 -2.6
12:15 1025 30.27 854 25.22 -13 8.5 59 -19.5 -3.1
12:20 1025 30.27 854 25.22 -13.1 8.5 59 -19.5 -3.2
12:25 1025 30.27 854 25.22 -13.3 8 58 -19.8 -3.7
12:30 1025 30.27 854 25.22 -13.4 8 60 -19.6 -3.3
12:35 1025 30.27 854 25.22 -13 8.5 59 -19.4 -2.9
12:40 1025 30.27 854 25.22 -13.2 8.3 60 -19.4 -3
12:45 1025 30.27 854 25.22 -13.5 7.7 60 -19.8 -3.6
12:50 1025 30.27 854 25.22 -13.5 7.6 60 -19.8 -3.6
12:55 1025 30.27 854 25.22 -13.6 7.5 60 -19.8 -3.7
13:00 1025 30.27 854 25.22 -13.4 7.8 59 -19.8 -3.6
13:05 1025 30.27 854 25.22 -14.2 6.4 63 -19.8 -3.7
13:10 1025 30.27 854 25.22 -14.1 6.5 61 -20.2 -4.3
13:15 1025 30.27 854 25.22 -14.5 6 62 -20.3 -4.5
13:20 1025 30.27 854 25.22 -14 6.8 61 -19.9 -3.9
13:25 1025 30.27 854 25.22 -13.8 7.2 59 -20.2 -4.3
13:30 1025 30.27 854 25.22 -13.5 7.8 58 -20.1 -4.2
13:35 1025 30.27 854 25.22 -13.5 7.8 56 -20.4 -4.7
13:40 1025 30.27 854 25.22 -13.2 8.2 56 -20.2 -4.3
13:45 1025 30.27 854 25.22 -13.4 7.9 58 -20.1 -4.2
13:50 1025 30.27 854 25.22 -13.9 7 58 -20.5 -4.9
13:55 1025 30.27 854 25.22 -13.4 7.9 57 -20.2 -4.3
14:00 1025 30.27 854 25.22 -13.4 7.9 57 -20.2 -4.4
14:05 1025 30.27 854 25.22 -13.4 7.9 57 -20.2 -4.4
14:10 1025 30.27 854 25.22 -13 8.6 54 -20.4 -4.7
14:15 1025 30.27 854 25.22 -13.2 8.3 55 -20.4 -4.7
14:20 1025 30.27 854 25.22 -13.1 8.5 55 -20.3 -4.6
14:25 1025 30.27 854 25.22 -13.1 8.3 56 -20.1 -4.3
14:30 1025 30.27 854 25.22 -13.4 7.9 57 -20.1 -4.2
14:35 1025 30.27 854 25.22 -14 6.8 59 -20.4 -4.7
14:40 1025 30.27 854 25.22 -13.9 7.1 58 -20.5 -4.9
14:45 1025 30.27 854 25.22 -13.7 7.4 57 -20.5 -5
14:50 1025 30.27 854 25.22 -13.9 7 58 -20.5 -4.8
14:55 1025 30.27 854 25.22 -13.2 8.2 56 -20.2 -4.3
15:00 1025 30.27 854 25.22 -13.3 8.1 56 -20.2 -4.4
15:05 1025 30.27 854 25.22 -13.3 8.1 56 -20.3 -4.5
15:10 1025 30.27 854 25.22 -13.1 8.4 55 -20.3 -4.6
15:15 1025 30.27 854 25.22 -13.1 8.4 56 -20.2 -4.4
15:20 1025 30.27 854 25.22 -14 6.8 59 -20.4 -4.7
15:25 1025 30.27 854 25.22 -14.5 6 60 -20.6 -5
15:30 1025 30.27 854 25.22 -14.4 6.1 61 -20.3 -4.6
15:35 1025 30.27 854 25.22 -14.4 6 61 -20.3 -4.6
15:40 1025 30.27 854 25.22 -14.9 5.3 63 -20.5 -4.8
15:45 1025 30.27 854 25.22 -14.9 5.1 64 -20.4 -4.7
15:50 1025 30.27 854 25.22 -15 5 63 -20.6 -5.1
15:55 1025 30.27 854 25.22 -14.9 5.1 62 -20.6 -5.1
16:00 1025 30.27 854 25.22 -15.2 4.6 64 -20.6 -5
16:05 1025 30.27 854 25.22 -15.4 4.3 65 -20.6 -5
16:10 1025 30.27 854 25.22 -14.9 5.1 63 -20.4 -4.8
16:15 1025 30.27 854 25.22 -14.7 5.5 62 -20.5 -4.9
16:20 1025 30.27 855 25.25 -15.2 4.6 63 -20.8 -5.4
16:25 1025 30.27 855 25.25 -15.8 3.7 66 -20.8 -5.4
16:30 1025 30.27 855 25.25 -16.1 3.1 67 -20.8 -5.4
16:35 1025 30.27 855 25.25 -16.5 2.3 67 -21.3 -6.3
16:40 1025 30.27 855 25.25 -17.1 1.2 69 -21.5 -6.7
16:45 1025 30.27 855 25.25 -17.3 0.8 71 -21.5 -6.6
16:50 1025 30.27 855 25.25 -17.3 0.8 72 -21.3 -6.3
16:55 1025 30.27 855 25.25 -17.7 0.2 73 -21.4 -6.6
17:00 1025 30.27 855 25.25 -18.2 -0.7 75 -21.6 -6.8
17:05 1025 30.27 855 25.25 -18.2 -0.7 76 -21.5 -6.6
17:10 1025 30.27 855 25.25 -17.9 -0.3 73 -21.6 -6.9
17:15 1025 30.27 855 25.25 -18.4 -1.1 75 -21.8 -7.2
17:20 1026 30.3 855 25.25 -19 -2.1 76 -22.2 -7.9
17:25 1026 30.3 855 25.25 -19.4 -2.8 78 -22.3 -8.2
17:30 1026 30.3 855 25.25 -19.7 -3.4 78 -22.6 -8.7
17:35 1026 30.3 855 25.25 -20.1 -4.2 79 -22.9 -9.2
17:40 1026 30.3 855 25.25 -20.6 -5.1 79 -23.3 -9.9
17:45 1025 30.27 855 25.25 -20.5 -4.9 81 -22.9 -9.3
17:50 1025 30.27 855 25.25 -20 -3.9 79 -22.8 -9
17:55 1026 30.3 855 25.25 -19.9 -3.8 77 -23 -9.4
18:00 1026 30.3 855 25.25 -20.6 -5.1 78 -23.5 -10.2
18:05 1026 30.3 855 25.25 -21 -5.8 80 -23.6 -10.5
18:10 1026 30.3 855 25.25 -21.1 -5.9 81 -23.6 -10.4
18:15 1026 30.3 855 25.25 -20.9 -5.7 81 -23.4 -10.1
18:20 1026 30.3 855 25.25 -20.7 -5.3 81 -23.2 -9.8
18:25 1025 30.27 855 25.25 -20.6 -5.1 80 -23.3 -9.9
18:30 1026 30.3 855 25.25 -21 -5.7 81 -23.5 -10.2
18:35 1026 30.3 855 25.25 -20.9 -5.5 80 -23.5 -10.3
18:40 1026 30.3 855 25.25 -20.8 -5.5 80 -23.4 -10.1
18:45 1026 30.3 855 25.25 -20.8 -5.4 80 -23.4 -10.2
18:50 1026 30.3 855 25.25 -20.7 -5.2 80 -23.3 -10
18:55 1026 30.3 855 25.25 -20.7 -5.2 78 -23.6 -10.4
19:00 1026 30.3 855 25.25 -20.9 -5.5 79 -23.7 -10.6
19:05 1026 30.3 855 25.25 -21 -5.8 78 -23.9 -11
19:10 1026 30.3 855 25.25 -21.4 -6.6 79 -24.2 -11.6
19:15 1026 30.3 855 25.25 -21.4 -6.5 80 -23.9 -11.1
19:20 1026 30.3 855 25.25 -20.9 -5.7 78 -23.8 -10.8
19:25 1026 30.3 855 25.25 -20.7 -5.3 78 -23.6 -10.5
19:30 1026 30.3 855 25.25 -20.7 -5.2 78 -23.6 -10.5
19:35 1026 30.3 855 25.25 -20.8 -5.4 78 -23.7 -10.7
19:40 1026 30.3 855 25.25 -21.1 -5.9 79 -23.8 -10.9
19:45 1026 30.3 855 25.25 -21.4 -6.5 78 -24.2 -11.6
19:50 1026 30.3 855 25.25 -21.6 -6.8 78 -24.4 -12
19:55 1026 30.3 855 25.25 -21.6 -6.9 78 -24.5 -12
20:00 1026 30.3 855 25.25 -21.6 -6.8 79 -24.3 -11.8
20:05 1026 30.3 855 25.25 -21.4 -6.6 78 -24.3 -11.7
20:10 1026 30.3 855 25.25 -21.3 -6.4 78 -24.1 -11.5
20:15 1026 30.3 855 25.25 -21.2 -6.1 78 -24.1 -11.4
20:20 1026 30.3 855 25.25 -21.1 -5.9 77 -24.1 -11.4
20:25 1026 30.3 855 25.25 -21.3 -6.3 78 -24.2 -11.6
20:30 1026 30.3 855 25.25 -21.5 -6.7 78 -24.4 -12
20:35 1026 30.3 855 25.25 -21.7 -7.1 78 -24.6 -12.3
20:40 1026 30.3 855 25.25 -21.7 -7.1 79 -24.5 -12.1
20:45 1026 30.3 855 25.25 -21.5 -6.7 78 -24.3 -11.8
20:50 1025 30.27 855 25.25 -21.2 -6.2 77 -24.2 -11.5
20:55 1025 30.27 855 25.25 -21.1 -6 76 -24.2 -11.6
21:00 1025 30.27 855 25.25 -20.9 -5.7 76 -24 -11.3
21:05 1025 30.27 855 25.25 -20.9 -5.7 76 -24.1 -11.4
21:10 1025 30.27 855 25.25 -21.1 -5.9 76 -24.2 -11.6
21:15 1025 30.27 855 25.25 -21.4 -6.6 76 -24.5 -12.2
21:20 1025 30.27 855 25.25 -21.4 -6.5 77 -24.5 -12
21:25 1025 30.27 855 25.25 -21.1 -5.9 76 -24.3 -11.8
21:30 1025 30.27 855 25.25 -20.7 -5.3 75 -24 -11.2
21:35 1025 30.27 855 25.25 -20.3 -4.5 74 -23.7 -10.6
21:40 1025 30.27 855 25.25 -19.8 -3.6 72 -23.6 -10.4
21:45 1025 30.27 855 25.25 -19.9 -3.8 72 -23.8 -10.8
21:50 1025 30.27 855 25.25 -19.8 -3.6 71 -23.7 -10.7
21:55 1026 30.3 855 25.25 -19.9 -3.9 70 -24.2 -11.5
22:00 1026 30.3 855 25.25 -21 -5.8 73 -24.6 -12.3
22:05 1026 30.3 855 25.25 -21.5 -6.8 74 -25 -13
22:10 1026 30.3 855 25.25 -21 -5.8 74 -24.5 -12
22:15 1026 30.3 855 25.25 -20.7 -5.3 76 -23.9 -11
22:20 1026 30.3 855 25.25 -20.2 -4.3 73 -23.9 -11
22:25 1026 30.3 855 25.25 -20.5 -5 73 -24.2 -11.5
22:30 1026 30.3 855 25.25 -20.3 -4.6 73 -24 -11.3
22:35 1026 30.3 855 25.25 -20.5 -4.9 73 -24.1 -11.4
22:40 1026 30.3 855 25.25 -20.6 -5 73 -24.2 -11.6
22:45 1026 30.3 855 25.25 -20.7 -5.3 74 -24.3 -11.7
22:50 1026 30.3 855 25.25 -20.8 -5.4 74 -24.3 -11.7
22:55 1026 30.3 855 25.25 -21 -5.8 74 -24.5 -12
23:00 1025 30.27 855 25.25 -21.5 -6.7 75 -24.7 -12.5
23:05 1025 30.27 855 25.25 -21.5 -6.7 76 -24.6 -12.3
23:10 1026 30.3 855 25.25 -21.2 -6.1 77 -24.3 -11.7
23:15 1026 30.3 855 25.25 -21.1 -5.9 76 -24.3 -11.8
23:20 1026 30.3 855 25.25 -21.1 -6 75 -24.4 -11.9
23:25 1026 30.3 855 25.25 -21.3 -6.3 76 -24.4 -12
23:30 1026 30.3 855 25.25 -21.2 -6.1 75 -24.4 -12
23:35 1026 30.3 855 25.25 -20.9 -5.6 74 -24.4 -11.8
23:40 1026 30.3 855 25.25 -20.9 -5.6 74 -24.3 -11.8
23:45 1026 30.3 855 25.25 -21.1 -5.9 74 -24.6 -12.2
23:50 1026 30.3 855 25.25 -21.3 -6.3 74 -24.7 -12.4
23:55 1026 30.3 855 25.25 -21.3 -6.4 74 -24.7 -12.5
24:00 1026 30.3 855 25.25 -21.6 -6.8 75 -24.9 -12.9